createdAt,value
2018-11-14T00:00:25.700Z,75.85
2018-11-14T00:01:00.506Z,75.85
2018-11-14T00:01:34.817Z,75.65
2018-11-14T00:02:09.138Z,75.83
2018-11-14T00:02:43.473Z,75.59
2018-11-14T00:03:17.866Z,75.78
2018-11-14T00:03:52.189Z,75.61
2018-11-14T00:04:26.520Z,75.52
2018-11-14T00:05:00.949Z,75.35
2018-11-14T00:05:35.298Z,75.57
2018-11-14T00:06:09.608Z,75.94
2018-11-14T00:06:43.954Z,75.65
2018-11-14T00:07:18.322Z,75.74
2018-11-14T00:07:52.667Z,76.03
2018-11-14T00:08:27.020Z,75.81
2018-11-14T00:09:01.385Z,75.98
2018-11-14T00:09:35.720Z,76.23
2018-11-14T00:10:10.721Z,76.06
2018-11-14T00:10:45.280Z,76.29
2018-11-14T00:11:19.617Z,75.67
2018-11-14T00:11:54.005Z,75.66
2018-11-14T00:12:28.327Z,75.68
2018-11-14T00:13:02.702Z,75.82
2018-11-14T00:13:37.051Z,75.91
2018-11-14T00:14:11.425Z,75.87
2018-11-14T00:14:45.812Z,76.36
2018-11-14T00:15:24.039Z,76.07
2018-11-14T00:15:58.446Z,76.43
2018-11-14T00:16:32.764Z,76.17
2018-11-14T00:17:07.132Z,76.12
2018-11-14T00:17:42.704Z,75.83
2018-11-14T00:18:17.108Z,75.55
2018-11-14T00:18:51.613Z,75.78
2018-11-14T00:19:26.051Z,75.05
2018-11-14T00:20:00.920Z,75.21
2018-11-14T00:20:35.254Z,75.34
2018-11-14T00:21:09.724Z,75.52
2018-11-14T00:21:44.455Z,75.62
2018-11-14T00:22:18.524Z,75.31
2018-11-14T00:22:53.558Z,75.20
2018-11-14T00:23:27.863Z,76.22
2018-11-14T00:24:02.232Z,76.09
2018-11-14T00:24:36.595Z,75.66
2018-11-14T00:25:11.184Z,76.39
2018-11-14T00:25:45.522Z,76.54
2018-11-14T00:26:19.859Z,75.98
2018-11-14T00:26:54.295Z,76.41
2018-11-14T00:27:28.630Z,76.24
2018-11-14T00:28:03.507Z,75.99
2018-11-14T00:28:37.656Z,75.55
2018-11-14T00:29:12.122Z,75.64
2018-11-14T00:29:46.503Z,75.86
2018-11-14T00:30:24.483Z,75.64
2018-11-14T00:30:58.809Z,75.75
2018-11-14T00:31:33.479Z,75.63
2018-11-14T00:32:07.787Z,76.17
2018-11-14T00:32:42.283Z,76.29
2018-11-14T00:33:17.090Z,75.97
2018-11-14T00:33:51.313Z,76.07
2018-11-14T00:34:26.061Z,76.23
2018-11-14T00:35:00.404Z,76.05
2018-11-14T00:35:34.754Z,76.17
2018-11-14T00:36:09.389Z,75.49
2018-11-14T00:36:43.761Z,76.34
2018-11-14T00:37:18.172Z,75.81
2018-11-14T00:37:52.617Z,75.85
2018-11-14T00:38:27.031Z,76.13
2018-11-14T00:39:01.387Z,76.64
2018-11-14T00:39:35.735Z,76.42
2018-11-14T00:40:12.848Z,75.95
2018-11-14T00:40:47.251Z,76.03
2018-11-14T00:41:22.007Z,75.95
2018-11-14T00:41:56.373Z,76.76
2018-11-14T00:42:30.829Z,76.35
2018-11-14T00:43:05.553Z,76.70
2018-11-14T00:43:39.900Z,76.97
2018-11-14T00:44:14.500Z,76.71
2018-11-14T00:44:48.920Z,76.51
2018-11-14T00:45:23.465Z,76.32
2018-11-14T00:45:57.796Z,75.70
2018-11-14T00:46:32.096Z,76.20
2018-11-14T00:47:06.437Z,75.75
2018-11-14T00:47:41.204Z,75.28
2018-11-14T00:48:15.695Z,76.24
2018-11-14T00:48:50.064Z,76.42
2018-11-14T00:49:24.413Z,76.00
2018-11-14T00:49:58.780Z,75.72
2018-11-14T00:50:33.128Z,76.25
2018-11-14T00:51:07.456Z,76.54
2018-11-14T00:51:41.786Z,76.40
2018-11-14T00:52:16.304Z,76.32
2018-11-14T00:52:50.652Z,76.90
2018-11-14T00:53:24.959Z,76.23
2018-11-14T00:53:59.412Z,76.98
2018-11-14T00:54:33.740Z,75.98
2018-11-14T00:55:11.390Z,76.73
2018-11-14T00:55:45.804Z,76.56
2018-11-14T00:56:20.350Z,76.78
2018-11-14T00:56:54.691Z,76.81
2018-11-14T00:57:29.083Z,77.16
2018-11-14T00:58:03.479Z,77.11
2018-11-14T00:58:37.808Z,77.18
2018-11-14T00:59:12.185Z,76.86
2018-11-14T00:59:46.592Z,77.00
2018-11-14T01:00:25.844Z,76.88
2018-11-14T01:01:00.503Z,76.69
2018-11-14T01:01:34.973Z,77.55
2018-11-14T01:02:09.392Z,77.12
2018-11-14T01:02:44.397Z,76.85
2018-11-14T01:03:18.852Z,77.28
2018-11-14T01:03:53.819Z,77.22
2018-11-14T01:04:28.146Z,76.67
2018-11-14T01:05:02.618Z,76.99
2018-11-14T01:05:36.924Z,76.27
2018-11-14T01:06:11.688Z,76.87
2018-11-14T01:06:46.185Z,76.65
2018-11-14T01:07:20.569Z,77.01
2018-11-14T01:07:54.911Z,77.33
2018-11-14T01:08:29.244Z,76.62
2018-11-14T01:09:03.998Z,76.63
2018-11-14T01:09:38.484Z,76.18
2018-11-14T01:10:15.263Z,76.39
2018-11-14T01:10:49.668Z,76.40
2018-11-14T01:11:24.075Z,77.10
2018-11-14T01:11:58.380Z,76.50
2018-11-14T01:12:32.708Z,76.48
2018-11-14T01:13:07.101Z,77.32
2018-11-14T01:13:41.651Z,76.92
2018-11-14T01:14:16.277Z,77.18
2018-11-14T01:14:50.687Z,77.17
2018-11-14T01:15:25.098Z,77.41
2018-11-14T01:15:59.455Z,77.41
2018-11-14T01:16:33.868Z,77.59
2018-11-14T01:17:08.314Z,76.94
2018-11-14T01:17:43.045Z,76.96
2018-11-14T01:18:17.487Z,77.22
2018-11-14T01:18:51.875Z,76.95
2018-11-14T01:19:26.460Z,76.64
2018-11-14T01:20:00.789Z,76.93
2018-11-14T01:20:35.174Z,76.53
2018-11-14T01:21:09.500Z,76.44
2018-11-14T01:21:43.933Z,76.63
2018-11-14T01:22:18.494Z,76.38
2018-11-14T01:22:52.972Z,76.95
2018-11-14T01:23:27.477Z,76.53
2018-11-14T01:24:01.812Z,76.82
2018-11-14T01:24:36.165Z,76.09
2018-11-14T01:25:11.895Z,76.94
2018-11-14T01:25:46.719Z,77.23
2018-11-14T01:26:21.190Z,77.31
2018-11-14T01:26:55.588Z,76.78
2018-11-14T01:27:30.115Z,76.98
2018-11-14T01:28:04.576Z,77.01
2018-11-14T01:28:39.059Z,76.90
2018-11-14T01:29:14.787Z,77.20
2018-11-14T01:29:49.224Z,77.26
2018-11-14T01:30:24.577Z,77.29
2018-11-14T01:30:58.962Z,77.08
2018-11-14T01:31:33.709Z,76.99
2018-11-14T01:32:08.111Z,76.26
2018-11-14T01:32:42.812Z,76.84
2018-11-14T01:33:17.300Z,76.59
2018-11-14T01:33:51.729Z,76.65
2018-11-14T01:34:26.263Z,77.67
2018-11-14T01:35:00.612Z,77.39
2018-11-14T01:35:35.101Z,77.58
2018-11-14T01:36:09.713Z,77.39
2018-11-14T01:36:44.152Z,76.91
2018-11-14T01:37:18.555Z,77.76
2018-11-14T01:37:52.944Z,77.34
2018-11-14T01:38:27.349Z,77.24
2018-11-14T01:39:01.720Z,77.55
2018-11-14T01:39:36.056Z,76.91
2018-11-14T01:40:16.306Z,77.12
2018-11-14T01:40:50.677Z,77.32
2018-11-14T01:41:25.032Z,77.25
2018-11-14T01:41:59.400Z,77.37
2018-11-14T01:42:33.764Z,76.92
2018-11-14T01:43:08.127Z,76.64
2018-11-14T01:43:42.501Z,76.83
2018-11-14T01:44:17.068Z,77.41
2018-11-14T01:45:07.084Z,76.87
2018-11-14T01:45:41.442Z,77.24
2018-11-14T01:46:16.381Z,77.16
2018-11-14T01:46:50.753Z,77.00
2018-11-14T01:47:25.088Z,77.14
2018-11-14T01:47:59.414Z,77.19
2018-11-14T01:48:33.756Z,76.77
2018-11-14T01:49:08.980Z,76.56
2018-11-14T01:49:43.376Z,77.43
2018-11-14T01:50:17.935Z,77.18
2018-11-14T01:50:52.310Z,77.60
2018-11-14T01:51:26.653Z,77.04
2018-11-14T01:52:01.136Z,77.53
2018-11-14T01:52:35.579Z,77.54
2018-11-14T01:53:10.078Z,77.45
2018-11-14T01:53:44.469Z,77.22
2018-11-14T01:54:18.854Z,77.00
2018-11-14T01:54:53.212Z,77.10
2018-11-14T01:55:27.560Z,77.61
2018-11-14T01:56:01.960Z,77.56
2018-11-14T01:56:36.351Z,77.22
2018-11-14T01:57:10.714Z,76.97
2018-11-14T01:57:45.152Z,77.39
2018-11-14T01:58:19.606Z,76.92
2018-11-14T01:58:54.024Z,76.79
2018-11-14T01:59:28.380Z,77.57
2018-11-14T02:00:02.724Z,77.56
2018-11-14T02:00:37.113Z,77.39
2018-11-14T02:01:11.563Z,77.17
2018-11-14T02:01:46.062Z,76.99
2018-11-14T02:02:20.872Z,76.87
2018-11-14T02:02:55.238Z,77.34
2018-11-14T02:03:29.795Z,77.01
2018-11-14T02:04:04.144Z,77.22
2018-11-14T02:04:38.486Z,77.15
2018-11-14T02:05:13.001Z,78.06
2018-11-14T02:05:47.572Z,77.35
2018-11-14T02:06:21.978Z,77.74
2018-11-14T02:06:56.316Z,77.38
2018-11-14T02:07:30.652Z,77.61
2018-11-14T02:08:05.204Z,77.96
2018-11-14T02:08:39.539Z,77.61
2018-11-14T02:09:14.184Z,78.20
2018-11-14T02:09:48.592Z,77.76
2018-11-14T02:10:23.008Z,78.12
2018-11-14T02:10:57.364Z,77.70
2018-11-14T02:11:31.742Z,78.14
2018-11-14T02:12:06.187Z,78.07
2018-11-14T02:12:41.233Z,77.77
2018-11-14T02:13:16.055Z,78.17
2018-11-14T02:13:51.092Z,77.72
2018-11-14T02:14:25.428Z,77.77
2018-11-14T02:14:59.772Z,77.55
2018-11-14T02:15:34.152Z,77.94
2018-11-14T02:16:08.519Z,78.30
2018-11-14T02:16:42.957Z,78.46
2018-11-14T02:17:17.568Z,77.89
2018-11-14T02:17:52.568Z,78.01
2018-11-14T02:18:26.941Z,78.20
2018-11-14T02:19:01.301Z,78.52
2018-11-14T02:19:35.877Z,78.62
2018-11-14T02:20:11.236Z,78.82
2018-11-14T02:20:45.852Z,78.87
2018-11-14T02:21:20.428Z,78.18
2018-11-14T02:21:54.806Z,78.72
2018-11-14T02:22:29.136Z,78.32
2018-11-14T02:23:03.524Z,78.88
2018-11-14T02:23:37.866Z,78.87
2018-11-14T02:24:13.219Z,78.58
2018-11-14T02:24:47.684Z,78.24
2018-11-14T02:25:22.116Z,78.97
2018-11-14T02:25:56.476Z,78.90
2018-11-14T02:26:30.831Z,78.78
2018-11-14T02:27:06.159Z,78.34
2018-11-14T02:27:40.773Z,78.57
2018-11-14T02:28:15.434Z,78.00
2018-11-14T02:28:51.150Z,78.07
2018-11-14T02:29:25.517Z,78.63
2018-11-14T02:29:59.882Z,78.83
2018-11-14T02:30:34.258Z,78.79
2018-11-14T02:31:08.600Z,78.87
2018-11-14T02:31:43.062Z,78.81
2018-11-14T02:32:17.871Z,79.44
2018-11-14T02:32:52.665Z,79.43
2018-11-14T02:33:27.017Z,79.51
2018-11-14T02:34:01.385Z,79.37
2018-11-14T02:34:35.742Z,78.44
2018-11-14T02:35:10.478Z,78.84
2018-11-14T02:35:45.045Z,79.10
2018-11-14T02:36:20.082Z,79.32
2018-11-14T02:36:54.506Z,78.89
2018-11-14T02:37:28.885Z,79.12
2018-11-14T02:38:03.397Z,79.33
2018-11-14T02:38:37.807Z,78.54
2018-11-14T02:39:12.180Z,78.78
2018-11-14T02:39:46.577Z,78.99
2018-11-14T02:40:22.206Z,79.17
2018-11-14T02:40:56.600Z,79.60
2018-11-14T02:41:30.972Z,79.22
2018-11-14T02:42:05.948Z,79.34
2018-11-14T02:42:40.535Z,79.71
2018-11-14T02:43:14.969Z,79.81
2018-11-14T02:43:49.475Z,79.41
2018-11-14T02:44:23.846Z,79.88
2018-11-14T02:44:58.177Z,79.92
2018-11-14T02:45:32.525Z,78.95
2018-11-14T02:46:06.900Z,78.91
2018-11-14T02:46:41.241Z,79.54
2018-11-14T02:47:15.883Z,79.66
2018-11-14T02:47:50.611Z,79.21
2018-11-14T02:48:24.936Z,79.25
2018-11-14T02:48:59.437Z,79.77
2018-11-14T02:49:33.786Z,79.18
2018-11-14T02:50:10.165Z,80.04
2018-11-14T02:50:44.657Z,79.72
2018-11-14T02:51:28.092Z,79.88
2018-11-14T02:52:02.472Z,80.28
2018-11-14T02:52:36.820Z,80.18
2018-11-14T02:53:11.255Z,79.79
2018-11-14T02:53:45.722Z,80.78
2018-11-14T02:54:20.224Z,80.54
2018-11-14T02:54:54.574Z,80.14
2018-11-14T02:55:28.942Z,80.52
2018-11-14T02:56:11.499Z,80.53
2018-11-14T02:56:46.013Z,80.61
2018-11-14T02:57:20.672Z,79.93
2018-11-14T02:57:55.140Z,80.83
2018-11-14T02:58:29.480Z,79.98
2018-11-14T02:59:04.197Z,80.41
2018-11-14T02:59:38.588Z,80.17
2018-11-14T03:00:16.712Z,79.87
2018-11-14T03:00:51.231Z,79.90
2018-11-14T03:01:25.602Z,80.52
2018-11-14T03:01:59.932Z,80.72
2018-11-14T03:02:34.285Z,80.19
2018-11-14T03:03:08.809Z,80.79
2018-11-14T03:03:43.181Z,80.43
2018-11-14T03:04:17.610Z,80.49
2018-11-14T03:04:52.064Z,80.68
2018-11-14T03:05:26.419Z,80.12
2018-11-14T03:06:00.793Z,80.79
2018-11-14T03:06:35.159Z,80.58
2018-11-14T03:07:09.501Z,80.24
2018-11-14T03:07:43.886Z,80.28
2018-11-14T03:08:18.328Z,80.72
2018-11-14T03:08:52.929Z,80.32
2018-11-14T03:09:27.281Z,79.94
2018-11-14T03:10:01.644Z,80.24
2018-11-14T03:10:36.056Z,80.39
2018-11-14T03:11:10.700Z,81.39
2018-11-14T03:11:45.289Z,80.45
2018-11-14T03:12:19.915Z,80.38
2018-11-14T03:12:54.437Z,80.40
2018-11-14T03:13:28.772Z,80.59
2018-11-14T03:14:03.148Z,80.29
2018-11-14T03:14:37.732Z,80.70
2018-11-14T03:15:14.733Z,80.56
2018-11-14T03:15:49.243Z,80.84
2018-11-14T03:16:23.758Z,80.33
2018-11-14T03:16:58.262Z,80.54
2018-11-14T03:17:32.637Z,80.34
2018-11-14T03:18:07.094Z,80.64
2018-11-14T03:18:41.447Z,80.64
2018-11-14T03:19:15.984Z,80.38
2018-11-14T03:19:50.576Z,80.55
2018-11-14T03:20:24.933Z,80.52
2018-11-14T03:20:59.344Z,80.09
2018-11-14T03:21:33.732Z,80.75
2018-11-14T03:22:08.275Z,80.58
2018-11-14T03:22:42.650Z,79.61
2018-11-14T03:23:17.318Z,79.77
2018-11-14T03:23:51.839Z,79.88
2018-11-14T03:24:26.205Z,80.87
2018-11-14T03:25:00.624Z,80.52
2018-11-14T03:25:34.992Z,80.74
2018-11-14T03:26:09.384Z,80.96
2018-11-14T03:26:43.796Z,81.22
2018-11-14T03:27:18.325Z,80.61
2018-11-14T03:27:52.880Z,80.14
2018-11-14T03:28:27.379Z,80.21
2018-11-14T03:29:01.745Z,79.87
2018-11-14T03:29:36.128Z,80.32
2018-11-14T03:30:13.264Z,80.49
2018-11-14T03:30:47.749Z,80.69
2018-11-14T03:31:22.206Z,80.28
2018-11-14T03:31:56.580Z,80.24
2018-11-14T03:32:30.942Z,80.18
2018-11-14T03:33:05.708Z,80.32
2018-11-14T03:33:40.131Z,80.66
2018-11-14T03:34:14.665Z,80.34
2018-11-14T03:34:49.307Z,80.52
2018-11-14T03:35:24.017Z,80.74
2018-11-14T03:36:03.737Z,79.95
2018-11-14T03:36:38.321Z,80.83
2018-11-14T03:37:12.753Z,80.38
2018-11-14T03:37:47.211Z,80.30
2018-11-14T03:38:21.972Z,80.52
2018-11-14T03:38:56.366Z,80.62
2018-11-14T03:39:30.741Z,79.92
2018-11-14T03:40:06.378Z,80.22
2018-11-14T03:40:40.777Z,80.32
2018-11-14T03:41:15.485Z,80.30
2018-11-14T03:41:50.064Z,81.00
2018-11-14T03:42:24.732Z,80.85
2018-11-14T03:42:59.272Z,80.52
2018-11-14T03:43:36.535Z,80.68
2018-11-14T03:44:10.925Z,80.22
2018-11-14T03:44:45.515Z,80.78
2018-11-14T03:45:20.038Z,80.34
2018-11-14T03:45:54.452Z,80.57
2018-11-14T03:46:29.073Z,80.63
2018-11-14T03:47:03.485Z,80.54
2018-11-14T03:47:38.159Z,80.87
2018-11-14T03:48:12.552Z,81.38
2018-11-14T03:48:47.090Z,80.21
2018-11-14T03:49:21.629Z,80.25
2018-11-14T03:49:56.074Z,80.48
2018-11-14T03:50:30.836Z,81.00
2018-11-14T03:51:05.299Z,81.14
2018-11-14T03:51:39.710Z,80.83
2018-11-14T03:52:14.458Z,80.66
2018-11-14T03:52:48.929Z,81.33
2018-11-14T03:53:23.373Z,80.71
2018-11-14T03:53:57.780Z,80.41
2018-11-14T03:54:32.183Z,80.17
2018-11-14T03:55:07.029Z,79.82
2018-11-14T03:55:41.434Z,79.27
2018-11-14T03:56:16.333Z,79.21
2018-11-14T03:56:50.799Z,78.39
2018-11-14T03:57:25.220Z,78.06
2018-11-14T03:57:59.610Z,78.77
2018-11-14T03:58:34.083Z,78.26
2018-11-14T03:59:08.586Z,78.81
2018-11-14T03:59:42.996Z,77.73
2018-11-14T04:00:17.736Z,78.17
2018-11-14T04:00:52.342Z,77.40
2018-11-14T04:01:26.800Z,77.36
2018-11-14T04:02:01.202Z,77.46
2018-11-14T04:02:35.783Z,77.84
2018-11-14T04:03:10.276Z,77.84
2018-11-14T04:03:44.872Z,78.23
2018-11-14T04:04:19.296Z,78.06
2018-11-14T04:04:53.921Z,77.72
2018-11-14T04:05:28.315Z,77.26
2018-11-14T04:06:02.941Z,77.33
2018-11-14T04:06:37.395Z,77.57
2018-11-14T04:07:12.001Z,77.24
2018-11-14T04:07:46.477Z,77.92
2018-11-14T04:08:20.986Z,77.73
2018-11-14T04:08:55.385Z,78.01
2018-11-14T04:09:29.808Z,77.81
2018-11-14T04:10:05.790Z,77.53
2018-11-14T04:10:40.335Z,77.76
2018-11-14T04:11:14.789Z,78.15
2018-11-14T04:11:49.286Z,78.68
2018-11-14T04:12:23.820Z,78.71
2018-11-14T04:12:58.455Z,78.53
2018-11-14T04:13:32.824Z,78.49
2018-11-14T04:14:07.286Z,78.90
2018-11-14T04:14:41.687Z,78.12
2018-11-14T04:15:16.800Z,78.74
2018-11-14T04:15:51.506Z,78.32
2018-11-14T04:16:25.939Z,78.74
2018-11-14T04:17:00.328Z,78.99
2018-11-14T04:17:34.818Z,78.41
2018-11-14T04:18:09.173Z,78.73
2018-11-14T04:18:43.595Z,78.30
2018-11-14T04:19:18.251Z,79.21
2018-11-14T04:19:52.732Z,78.57
2018-11-14T04:20:27.137Z,78.81
2018-11-14T04:21:01.502Z,79.17
2018-11-14T04:21:35.923Z,79.46
2018-11-14T04:22:10.296Z,79.37
2018-11-14T04:22:45.294Z,78.83
2018-11-14T04:23:19.989Z,78.60
2018-11-14T04:23:54.420Z,79.00
2018-11-14T04:24:28.816Z,78.47
2018-11-14T04:25:03.181Z,79.09
2018-11-14T04:25:37.517Z,78.87
2018-11-14T04:26:11.868Z,78.69
2018-11-14T04:26:46.349Z,78.77
2018-11-14T04:27:20.976Z,78.91
2018-11-14T04:27:55.369Z,79.25
2018-11-14T04:28:29.757Z,78.99
2018-11-14T04:29:04.161Z,78.73
2018-11-14T04:29:38.521Z,78.43
2018-11-14T04:30:16.661Z,78.78
2018-11-14T04:30:51.200Z,78.77
2018-11-14T04:31:25.615Z,78.34
2018-11-14T04:32:00.085Z,78.07
2018-11-14T04:32:34.576Z,78.84
2018-11-14T04:33:08.951Z,78.16
2018-11-14T04:33:43.634Z,78.30
2018-11-14T04:34:18.121Z,78.50
2018-11-14T04:34:52.702Z,78.32
2018-11-14T04:35:27.069Z,78.95
2018-11-14T04:36:01.437Z,78.68
2018-11-14T04:36:35.811Z,79.16
2018-11-14T04:37:10.611Z,78.60
2018-11-14T04:37:45.148Z,79.02
2018-11-14T04:38:19.784Z,78.52
2018-11-14T04:38:54.300Z,78.31
2018-11-14T04:39:28.696Z,78.81
2018-11-14T04:40:03.108Z,78.80
2018-11-14T04:40:37.477Z,78.49
2018-11-14T04:41:11.871Z,78.88
2018-11-14T04:41:46.249Z,78.73
2018-11-14T04:42:20.740Z,78.88
2018-11-14T04:42:55.180Z,78.41
2018-11-14T04:43:29.562Z,78.95
2018-11-14T04:44:04.733Z,78.56
2018-11-14T04:44:39.080Z,78.43
2018-11-14T04:45:14.887Z,78.24
2018-11-14T04:45:49.292Z,77.99
2018-11-14T04:46:23.736Z,78.65
2018-11-14T04:46:58.099Z,77.92
2018-11-14T04:47:32.530Z,78.18
2018-11-14T04:48:06.953Z,78.79
2018-11-14T04:48:41.489Z,78.59
2018-11-14T04:49:16.389Z,78.99
2018-11-14T04:49:50.882Z,78.97
2018-11-14T04:50:26.405Z,78.69
2018-11-14T04:51:00.774Z,79.12
2018-11-14T04:51:35.160Z,79.26
2018-11-14T04:52:09.550Z,79.00
2018-11-14T04:52:44.932Z,79.07
2018-11-14T04:53:19.344Z,79.01
2018-11-14T04:53:53.708Z,78.61
2018-11-14T04:54:28.062Z,79.26
2018-11-14T04:55:02.461Z,78.96
2018-11-14T04:55:37.187Z,79.29
2018-11-14T04:56:11.556Z,79.38
2018-11-14T04:56:46.014Z,79.55
2018-11-14T04:57:20.393Z,79.13
2018-11-14T04:57:54.816Z,79.07
2018-11-14T04:58:29.216Z,79.23
2018-11-14T04:59:03.580Z,79.65
2018-11-14T04:59:37.931Z,79.45
2018-11-14T05:00:13.774Z,79.31
2018-11-14T05:00:48.187Z,79.70
2018-11-14T05:01:22.664Z,79.12
2018-11-14T05:01:57.060Z,79.70
2018-11-14T05:02:31.449Z,79.37
2018-11-14T05:03:06.560Z,79.89
2018-11-14T05:03:40.980Z,79.42
2018-11-14T05:04:15.668Z,79.85
2018-11-14T05:04:50.105Z,80.08
2018-11-14T05:05:25.269Z,79.83
2018-11-14T05:05:59.637Z,79.93
2018-11-14T05:06:34.077Z,79.54
2018-11-14T05:07:08.431Z,79.68
2018-11-14T05:07:42.820Z,79.71
2018-11-14T05:08:17.252Z,79.73
2018-11-14T05:08:51.696Z,79.28
2018-11-14T05:09:26.104Z,79.36
2018-11-14T05:10:00.513Z,79.16
2018-11-14T05:10:34.970Z,79.65
2018-11-14T05:11:09.448Z,79.44
2018-11-14T05:11:43.896Z,79.52
2018-11-14T05:12:18.374Z,79.65
2018-11-14T05:12:53.216Z,79.43
2018-11-14T05:13:27.807Z,79.05
2018-11-14T05:14:02.171Z,79.66
2018-11-14T05:14:36.561Z,79.96
2018-11-14T05:15:12.504Z,79.82
2018-11-14T05:15:47.022Z,80.66
2018-11-14T05:16:21.936Z,80.76
2018-11-14T05:16:56.289Z,80.76
2018-11-14T05:17:30.656Z,80.81
2018-11-14T05:18:05.432Z,81.55
2018-11-14T05:18:39.779Z,81.09
2018-11-14T05:19:14.489Z,80.90
2018-11-14T05:19:49.014Z,81.40
2018-11-14T05:20:23.637Z,81.24
2018-11-14T05:20:58.033Z,81.45
2018-11-14T05:21:32.527Z,81.32
2018-11-14T05:22:06.989Z,80.98
2018-11-14T05:22:41.576Z,81.21
2018-11-14T05:23:16.074Z,80.93
2018-11-14T05:23:50.448Z,81.33
2018-11-14T05:24:25.017Z,81.01
2018-11-14T05:24:59.525Z,81.55
2018-11-14T05:25:33.918Z,81.40
2018-11-14T05:26:08.241Z,81.40
2018-11-14T05:26:42.604Z,81.42
2018-11-14T05:27:17.044Z,82.08
2018-11-14T05:27:51.732Z,81.80
2018-11-14T05:28:26.139Z,81.46
2018-11-14T05:29:00.525Z,81.74
2018-11-14T05:29:34.903Z,82.12
2018-11-14T05:30:12.145Z,82.18
2018-11-14T05:30:46.660Z,81.70
2018-11-14T05:31:21.308Z,81.55
2018-11-14T05:31:55.696Z,82.04
2018-11-14T05:32:30.255Z,81.99
2018-11-14T05:33:04.691Z,81.71
2018-11-14T05:33:39.098Z,81.96
2018-11-14T05:34:13.565Z,82.55
2018-11-14T05:34:48.227Z,81.81
2018-11-14T05:35:22.667Z,82.56
2018-11-14T05:35:57.023Z,82.58
2018-11-14T05:36:31.432Z,82.59
2018-11-14T05:37:06.077Z,82.37
2018-11-14T05:37:40.699Z,82.33
2018-11-14T05:38:15.478Z,82.57
2018-11-14T05:38:50.095Z,82.55
2018-11-14T05:39:24.542Z,82.62
2018-11-14T05:39:58.919Z,82.17
2018-11-14T05:40:33.605Z,82.62
2018-11-14T05:41:07.972Z,82.50
2018-11-14T05:41:42.376Z,82.77
2018-11-14T05:42:16.968Z,83.17
2018-11-14T05:42:52.137Z,82.81
2018-11-14T05:43:26.644Z,82.93
2018-11-14T05:44:01.060Z,83.11
2018-11-14T05:44:35.747Z,82.79
2018-11-14T05:45:14.268Z,82.60
2018-11-14T05:45:49.059Z,82.58
2018-11-14T05:46:23.626Z,82.74
2018-11-14T05:46:57.999Z,83.38
2018-11-14T05:47:32.368Z,82.80
2018-11-14T05:48:07.053Z,82.84
2018-11-14T05:48:41.421Z,83.04
2018-11-14T05:49:16.355Z,83.49
2018-11-14T05:49:50.873Z,82.60
2018-11-14T05:50:25.279Z,82.65
2018-11-14T05:50:59.672Z,82.79
2018-11-14T05:51:34.106Z,83.15
2018-11-14T05:52:08.612Z,83.12
2018-11-14T05:52:43.670Z,82.66
2018-11-14T05:53:18.183Z,83.39
2018-11-14T05:53:52.616Z,83.12
2018-11-14T05:54:27.111Z,82.99
2018-11-14T05:55:01.696Z,82.70
2018-11-14T05:55:36.234Z,83.11
2018-11-14T05:56:10.607Z,82.97
2018-11-14T05:56:45.160Z,82.67
2018-11-14T05:57:19.660Z,82.82
2018-11-14T05:57:54.146Z,83.08
2018-11-14T05:58:28.512Z,83.05
2018-11-14T05:59:02.897Z,82.98
2018-11-14T05:59:37.282Z,82.71
2018-11-14T06:00:25.594Z,83.28
2018-11-14T06:00:59.974Z,83.13
2018-11-14T06:01:34.452Z,83.43
2018-11-14T06:02:08.820Z,83.11
2018-11-14T06:02:44.248Z,83.22
2018-11-14T06:03:19.220Z,83.56
2018-11-14T06:03:53.667Z,83.50
2018-11-14T06:04:28.137Z,84.07
2018-11-14T06:05:02.495Z,83.79
2018-11-14T06:05:36.880Z,83.84
2018-11-14T06:06:11.273Z,83.84
2018-11-14T06:06:45.702Z,83.64
2018-11-14T06:07:20.351Z,84.12
2018-11-14T06:07:54.992Z,83.58
2018-11-14T06:08:29.391Z,83.78
2018-11-14T06:09:04.430Z,84.46
2018-11-14T06:09:38.801Z,83.48
2018-11-14T06:10:13.604Z,83.87
2018-11-14T06:10:48.073Z,84.02
2018-11-14T06:11:22.659Z,83.51
2018-11-14T06:11:57.057Z,83.58
2018-11-14T06:12:31.568Z,83.79
2018-11-14T06:13:05.960Z,83.70
2018-11-14T06:13:40.429Z,83.56
2018-11-14T06:14:14.876Z,83.88
2018-11-14T06:14:49.552Z,83.67
2018-11-14T06:15:24.154Z,83.69
2018-11-14T06:15:58.653Z,83.56
2018-11-14T06:16:33.020Z,82.93
2018-11-14T06:17:07.394Z,82.93
2018-11-14T06:17:43.103Z,83.09
2018-11-14T06:18:17.632Z,82.91
2018-11-14T06:18:52.066Z,83.04
2018-11-14T06:19:26.508Z,82.14
2018-11-14T06:20:00.852Z,82.12
2018-11-14T06:20:35.304Z,81.19
2018-11-14T06:21:09.666Z,81.21
2018-11-14T06:21:44.184Z,80.74
2018-11-14T06:22:18.838Z,80.11
2018-11-14T06:22:53.768Z,80.61
2018-11-14T06:23:28.214Z,79.87
2018-11-14T06:24:03.215Z,79.36
2018-11-14T06:24:37.612Z,79.46
2018-11-14T06:25:27.428Z,78.86
2018-11-14T06:26:01.957Z,78.69
2018-11-14T06:26:36.328Z,79.24
2018-11-14T06:27:10.806Z,78.80
2018-11-14T06:27:45.435Z,78.80
2018-11-14T06:28:19.893Z,78.91
2018-11-14T06:28:54.290Z,78.70
2018-11-14T06:29:28.642Z,79.52
2018-11-14T06:30:03.058Z,79.19
2018-11-14T06:30:38.605Z,79.17
2018-11-14T06:31:13.231Z,79.21
2018-11-14T06:31:47.739Z,78.84
2018-11-14T06:32:22.128Z,78.68
2018-11-14T06:32:57.019Z,78.95
2018-11-14T06:33:31.410Z,79.18
2018-11-14T06:34:06.610Z,78.88
2018-11-14T06:34:40.986Z,79.32
2018-11-14T06:35:16.613Z,78.59
2018-11-14T06:35:51.226Z,78.31
2018-11-14T06:36:25.685Z,78.77
2018-11-14T06:37:00.173Z,78.35
2018-11-14T06:37:35.100Z,78.91
2018-11-14T06:38:09.515Z,78.86
2018-11-14T06:38:44.364Z,79.27
2018-11-14T06:39:19.416Z,78.66
2018-11-14T06:39:53.952Z,78.67
2018-11-14T06:40:28.345Z,78.89
2018-11-14T06:41:02.725Z,78.81
2018-11-14T06:41:37.693Z,79.13
2018-11-14T06:42:12.244Z,78.49
2018-11-14T06:42:47.314Z,78.70
2018-11-14T06:43:21.927Z,79.21
2018-11-14T06:43:56.333Z,78.77
2018-11-14T06:44:30.719Z,79.01
2018-11-14T06:45:06.221Z,78.34
2018-11-14T06:45:40.656Z,78.09
2018-11-14T06:46:15.530Z,79.03
2018-11-14T06:46:50.172Z,78.76
2018-11-14T06:47:24.664Z,78.64
2018-11-14T06:48:00.082Z,78.84
2018-11-14T06:48:34.503Z,78.84
2018-11-14T06:49:08.877Z,78.71
2018-11-14T06:49:43.557Z,78.95
2018-11-14T06:50:18.466Z,79.00
2018-11-14T06:50:52.876Z,78.92
2018-11-14T06:51:27.236Z,79.50
2018-11-14T06:52:01.618Z,78.54
2018-11-14T06:52:36.475Z,78.71
2018-11-14T06:53:10.837Z,78.88
2018-11-14T06:53:45.855Z,79.14
2018-11-14T06:54:20.415Z,78.93
2018-11-14T06:54:54.964Z,79.02
2018-11-14T06:55:29.366Z,78.66
2018-11-14T06:56:03.765Z,79.31
2018-11-14T06:56:38.130Z,79.09
2018-11-14T06:57:12.497Z,80.10
2018-11-14T06:57:47.491Z,79.90
2018-11-14T06:58:21.925Z,79.92
2018-11-14T06:58:56.364Z,79.98
2018-11-14T06:59:30.956Z,80.42
2018-11-14T07:00:07.918Z,80.57
2018-11-14T07:00:42.347Z,80.10
2018-11-14T07:01:16.929Z,80.11
2018-11-14T07:01:51.479Z,80.00
2018-11-14T07:02:27.321Z,80.45
2018-11-14T07:03:01.505Z,80.62
2018-11-14T07:03:35.918Z,80.11
2018-11-14T07:04:10.283Z,80.05
2018-11-14T07:04:44.946Z,80.50
2018-11-14T07:05:19.395Z,80.53
2018-11-14T07:05:54.032Z,80.00
2018-11-14T07:06:28.544Z,80.06
2018-11-14T07:07:02.956Z,80.14
2018-11-14T07:07:37.363Z,80.32
2018-11-14T07:08:11.783Z,80.39
2018-11-14T07:08:46.294Z,80.39
2018-11-14T07:09:21.007Z,79.94
2018-11-14T07:09:55.808Z,79.68
2018-11-14T07:10:31.757Z,79.92
2018-11-14T07:11:06.517Z,79.85
2018-11-14T07:11:41.077Z,79.81
2018-11-14T07:12:15.627Z,79.57
2018-11-14T07:12:50.289Z,79.83
2018-11-14T07:13:24.713Z,79.58
2018-11-14T07:13:59.072Z,80.06
2018-11-14T07:14:33.457Z,79.79
2018-11-14T07:15:12.520Z,79.71
2018-11-14T07:15:47.080Z,79.58
2018-11-14T07:16:21.649Z,79.58
2018-11-14T07:16:56.016Z,79.93
2018-11-14T07:17:30.404Z,79.96
2018-11-14T07:18:04.930Z,80.02
2018-11-14T07:18:39.431Z,79.73
2018-11-14T07:19:13.903Z,79.61
2018-11-14T07:19:48.689Z,79.17
2018-11-14T07:20:25.588Z,79.43
2018-11-14T07:20:59.990Z,79.85
2018-11-14T07:21:34.406Z,79.73
2018-11-14T07:22:08.819Z,79.43
2018-11-14T07:22:43.769Z,79.83
2018-11-14T07:23:18.475Z,79.45
2018-11-14T07:23:53.002Z,79.03
2018-11-14T07:24:27.548Z,79.14
2018-11-14T07:25:02.064Z,79.20
2018-11-14T07:25:36.946Z,79.52
2018-11-14T07:26:11.359Z,79.15
2018-11-14T07:26:46.216Z,79.56